Time;durP1;ratioP1;P1;durP2;ratioP2;P2;SDS_P1;SDS_P2;PMS_P1;PMS_P2;Temp;Humidity;BMP_temperature;BMP_pressure;BME280_temperature;BME280_humidity;BME280_pressure;Samples;Min_cycle;Max_cycle;Signal;HPM_P1;HPM_P2
2022/06/26 00:00:07;;;;;;;0.05;0.05;;;;;;;20.75;67.26;101279.69;5087544;28;20042;-75
2022/06/26 00:02:33;;;;;;;0.15;0.15;;;;;;;20.74;67.19;101275.25;5084174;28;20025;-76
2022/06/26 00:05:00;;;;;;;0.10;0.10;;;;;;;20.77;67.36;101287.69;5078323;28;20056;-76
2022/06/26 00:07:26;;;;;;;0.10;0.10;;;;;;;20.77;67.61;101287.69;5088553;28;20050;-76
2022/06/26 00:09:52;;;;;;;0.25;0.25;;;;;;;20.76;67.66;101286.81;5096605;28;20497;-76
2022/06/26 00:12:18;;;;;;;0.00;0.00;;;;;;;20.74;68.13;101293.25;5092124;28;20034;-76
2022/06/26 00:14:45;;;;;;;0.10;0.10;;;;;;;20.73;67.66;101292.38;5093365;28;20447;-76
2022/06/26 00:17:11;;;;;;;0.10;0.10;;;;;;;20.68;68.29;101286.34;5090912;28;20035;-76
2022/06/26 00:19:37;;;;;;;0.20;0.20;;;;;;;20.67;68.21;101285.50;5089283;28;20092;-74
2022/06/26 00:22:05;;;;;;;0.00;0.00;;;;;;;20.68;67.71;101294.41;5090557;28;20036;-76
2022/06/26 00:24:33;;;;;;;0.30;0.30;;;;;;;20.68;67.50;101299.81;5100127;28;20028;-75
2022/06/26 00:27:02;;;;;;;0.10;0.10;;;;;;;20.52;68.59;101300.66;5088444;28;20062;-75
2022/06/26 00:29:30;;;;;;;0.43;0.43;;;;;;;20.49;68.40;101294.56;5095224;28;20079;-75
2022/06/26 00:31:56;;;;;;;0.40;0.40;;;;;;;20.49;68.42;101299.97;5092399;28;20443;-76
2022/06/26 00:34:22;;;;;;;0.10;0.10;;;;;;;20.40;68.21;101300.44;5087883;28;20028;-76
2022/06/26 00:36:55;;;;;;;0.43;0.43;;;;;;;20.36;68.34;101306.00;5093991;28;20062;-76
2022/06/26 00:39:21;;;;;;;0.00;0.00;;;;;;;20.26;68.42;101299.38;5090885;28;20024;-76
2022/06/26 00:41:47;;;;;;;0.63;0.63;;;;;;;20.17;68.59;101305.25;5083043;28;20026;-75
2022/06/26 00:44:16;;;;;;;0.00;0.00;;;;;;;20.09;68.40;101324.47;5078203;28;20087;-75
2022/06/26 00:46:43;;;;;;;0.20;0.20;;;;;;;20.03;68.37;101309.53;5080104;28;20081;-74
2022/06/26 00:49:10;;;;;;;0.10;0.10;;;;;;;20.00;68.29;101317.78;5089427;28;20048;-73
2022/06/26 00:51:44;;;;;;;0.28;0.28;;;;;;;20.02;68.37;101323.91;5088639;28;20097;-74
2022/06/26 00:54:10;;;;;;;0.30;0.30;;;;;;;19.97;68.52;101325.13;5083651;28;20393;-75
2022/06/26 00:56:37;;;;;;;0.00;0.00;;;;;;;19.93;68.22;101324.41;5089989;28;20031;-75
2022/06/26 00:59:04;;;;;;;2.50;0.50;;;;;;;19.91;68.45;101325.44;5083596;28;20040;-75
2022/06/26 01:01:31;;;;;;;0.00;0.00;;;;;;;19.88;68.91;101334.53;5088990;28;20481;-76
2022/06/26 01:03:58;;;;;;;0.35;0.35;;;;;;;19.90;68.45;101329.97;5088254;28;20085;-76
2022/06/26 01:06:24;;;;;;;0.10;0.10;;;;;;;19.85;68.29;101332.88;5088469;28;20028;-76
2022/06/26 01:08:50;;;;;;;0.35;0.35;;;;;;;19.84;68.17;101324.91;5088344;28;20035;-76
2022/06/26 01:11:17;;;;;;;0.82;0.82;;;;;;;19.80;68.17;101328.63;5088223;28;20081;-76
2022/06/26 01:13:45;;;;;;;0.45;0.45;;;;;;;19.60;68.13;101327.84;5090248;28;20443;-77
2022/06/26 01:16:13;;;;;;;0.10;0.10;;;;;;;19.60;68.33;101327.84;5093641;28;20036;-76
2022/06/26 01:18:41;;;;;;;0.03;0.03;;;;;;;19.60;68.23;101322.47;5085527;28;20143;-77
2022/06/26 01:21:07;;;;;;;0.50;0.50;;;;;;;19.61;68.10;101316.13;5081334;28;20035;-76
2022/06/26 01:23:34;;;;;;;0.10;0.10;;;;;;;19.57;68.37;101322.63;5098204;28;20023;-76
2022/06/26 01:26:00;;;;;;;0.65;0.65;;;;;;;19.50;68.26;101326.56;5090894;28;20490;-76
2022/06/26 01:28:26;;;;;;;0.55;0.55;;;;;;;19.47;67.96;101324.03;5085421;28;20393;-76
2022/06/26 01:30:52;;;;;;;0.30;0.30;;;;;;;19.41;68.36;101341.31;5092216;28;20028;-76
2022/06/26 01:33:18;;;;;;;0.95;0.73;;;;;;;19.26;68.30;101337.56;5084556;28;20059;-76
2022/06/26 01:35:45;;;;;;;0.40;0.40;;;;;;;19.25;68.43;101338.50;5086851;28;20055;-76
2022/06/26 01:38:18;;;;;;;0.90;0.90;;;;;;;19.29;68.19;101344.59;5084750;28;20515;-75
2022/06/26 01:40:45;;;;;;;0.20;0.20;;;;;;;19.17;68.81;101330.81;5078288;28;20037;-76
2022/06/26 01:43:15;;;;;;;1.17;0.68;;;;;;;19.23;68.51;101332.34;5094766;28;20509;-76
2022/06/26 01:45:42;;;;;;;1.65;1.55;;;;;;;19.23;68.61;101329.66;5087593;28;20169;-77
2022/06/26 01:48:08;;;;;;;2.35;0.85;;;;;;;19.27;68.59;101331.25;5082946;28;20520;-76
2022/06/26 01:50:34;;;;;;;0.00;0.00;;;;;;;19.22;68.52;101339.53;5086065;28;20063;-76
2022/06/26 01:53:01;;;;;;;0.40;0.40;;;;;;;19.23;68.46;101325.16;5088839;28;20036;-76
2022/06/26 01:55:27;;;;;;;0.20;0.20;;;;;;;19.22;68.66;101333.28;5089814;28;20043;-76
2022/06/26 01:57:53;;;;;;;0.13;0.13;;;;;;;19.27;68.46;101341.13;5092028;28;20470;-76
2022/06/26 02:00:20;;;;;;;0.03;0.03;;;;;;;19.27;68.77;101333.94;5103658;28;20027;-76
2022/06/26 02:02:46;;;;;;;0.40;0.40;;;;;;;19.29;68.60;101340.13;5099266;28;20024;-74
2022/06/26 02:05:12;;;;;;;0.10;0.10;;;;;;;19.25;68.85;101343.88;5109242;28;20038;-76
2022/06/26 02:07:39;;;;;;;0.38;0.38;;;;;;;19.20;68.64;101340.53;5087538;28;20531;-76
2022/06/26 02:15:38;;;;;;;0.10;0.10;;;;;;;19.13;68.46;101341.78;5092834;28;20039;-76
2022/06/26 02:18:04;;;;;;;0.10;0.10;;;;;;;19.15;68.38;101339.91;5094635;28;20379;-76
2022/06/26 02:20:31;;;;;;;1.02;0.85;;;;;;;19.11;68.49;101332.94;5080867;28;20028;-76
2022/06/26 02:22:57;;;;;;;0.52;0.52;;;;;;;19.06;68.40;101334.00;5084594;28;20182;-75
2022/06/26 02:25:23;;;;;;;0.10;0.10;;;;;;;19.09;68.35;101330.34;5092184;28;20032;-76
2022/06/26 02:27:50;;;;;;;0.43;0.43;;;;;;;19.06;68.47;101323.28;5092417;28;20032;-76
2022/06/26 02:30:17;;;;;;;0.40;0.40;;;;;;;18.93;68.88;101316.78;5092566;28;20457;-76
2022/06/26 02:32:43;;;;;;;0.45;0.45;;;;;;;18.93;68.53;101316.78;5099522;28;20402;-76
2022/06/26 02:35:10;;;;;;;0.10;0.10;;;;;;;18.91;68.57;101314.13;5080245;28;20490;-75
2022/06/26 02:37:37;;;;;;;0.65;0.65;;;;;;;18.86;68.61;101326.03;5105148;28;20064;-76
2022/06/26 02:40:04;;;;;;;0.03;0.03;;;;;;;18.86;68.11;101321.50;5092813;28;20039;-75
2022/06/26 02:42:30;;;;;;;0.20;0.20;;;;;;;18.85;68.46;101324.28;5092552;28;20481;-75
2022/06/26 02:44:57;;;;;;;0.98;0.98;;;;;;;18.82;68.77;101327.13;5099311;28;20052;-75
2022/06/26 02:47:23;;;;;;;0.30;0.30;;;;;;;18.82;68.73;101324.44;5100280;28;20032;-75
2022/06/26 02:49:49;;;;;;;0.22;0.22;;;;;;;18.78;68.83;101328.19;5099201;28;20058;-76
2022/06/26 02:52:15;;;;;;;0.15;0.15;;;;;;;18.78;68.53;101334.44;5098384;28;20125;-76
2022/06/26 02:54:41;;;;;;;0.10;0.10;;;;;;;18.75;68.41;101335.47;5092923;28;20574;-76
2022/06/26 02:57:09;;;;;;;0.00;0.00;;;;;;;18.74;68.50;101339.09;5092686;27;20089;-75
2022/06/26 02:59:35;;;;;;;0.00;0.00;;;;;;;18.72;68.42;101335.59;5095855;28;20038;-75
2022/06/26 03:02:01;;;;;;;0.95;0.73;;;;;;;18.71;68.47;101341.91;5097992;28;20032;-75
2022/06/26 03:04:27;;;;;;;0.10;0.10;;;;;;;18.69;68.48;101349.16;5097791;28;20028;-74
2022/06/26 03:06:54;;;;;;;0.10;0.10;;;;;;;18.65;68.60;101350.22;5095966;28;20067;-74
2022/06/26 03:09:20;;;;;;;0.65;0.65;;;;;;;18.66;68.42;101343.06;5093957;28;20055;-75
2022/06/26 03:11:46;;;;;;;0.10;0.10;;;;;;;18.62;68.59;101350.38;5092149;28;20028;-76
2022/06/26 03:14:12;;;;;;;0.43;0.43;;;;;;;18.63;68.62;101357.50;5097571;28;20114;-76
2022/06/26 03:16:38;;;;;;;0.00;0.00;;;;;;;18.61;68.43;101354.00;5095874;28;20098;-75
2022/06/26 03:19:04;;;;;;;1.40;1.13;;;;;;;18.55;68.57;101359.66;5087744;28;20031;-75
2022/06/26 03:21:31;;;;;;;0.17;0.17;;;;;;;18.52;68.66;101365.16;5095666;28;20059;-75
2022/06/26 03:24:04;;;;;;;0.00;0.00;;;;;;;18.53;68.26;101364.19;5085278;28;20027;-74
2022/06/26 03:29:09;;;;;;;2.20;0.93;;;;;;;18.47;68.37;101372.53;5108956;27;20399;-76
2022/06/26 03:31:35;;;;;;;0.40;0.40;;;;;;;18.45;68.26;101361.88;5081785;28;20075;-75
2022/06/26 03:34:02;;;;;;;0.38;0.38;;;;;;;18.44;68.51;101368.16;5082658;28;20688;-75
2022/06/26 03:36:28;;;;;;;0.10;0.10;;;;;;;18.40;68.23;101370.13;5074201;28;20043;-75
2022/06/26 03:38:55;;;;;;;0.10;0.10;;;;;;;18.40;68.13;101366.56;5076782;28;20478;-75
2022/06/26 03:41:21;;;;;;;0.43;0.38;;;;;;;18.38;68.05;101368.44;5077102;28;20433;-75
2022/06/26 03:43:48;;;;;;;0.10;0.10;;;;;;;18.30;68.07;101370.63;5080403;28;20733;-75
2022/06/26 03:46:15;;;;;;;0.10;0.10;;;;;;;18.17;68.60;101380.97;5076119;28;20438;-74
2022/06/26 03:48:41;;;;;;;0.00;0.00;;;;;;;18.24;68.35;101382.47;5084065;28;20031;-75
2022/06/26 03:51:08;;;;;;;0.10;0.10;;;;;;;18.16;68.73;101384.63;5073078;28;20045;-74
2022/06/26 03:53:36;;;;;;;0.35;0.35;;;;;;;18.19;68.69;101382.66;5064664;28;20060;-74
2022/06/26 03:56:03;;;;;;;0.20;0.20;;;;;;;18.12;68.86;101394.63;5072802;28;20036;-75
2022/06/26 03:58:30;;;;;;;0.10;0.10;;;;;;;18.16;68.75;101396.22;5081778;28;20024;-75
2022/06/26 04:00:56;;;;;;;0.15;0.15;;;;;;;18.16;68.51;101388.16;5084240;28;20040;-76
2022/06/26 04:03:22;;;;;;;0.03;0.03;;;;;;;18.18;68.84;101388.09;5076048;28;20032;-74
2022/06/26 04:05:49;;;;;;;0.00;0.00;;;;;;;18.16;68.84;101395.34;5074820;28;20066;-75
2022/06/26 04:08:15;;;;;;;0.10;0.10;;;;;;;18.07;69.04;101389.44;5067315;28;20247;-75
2022/06/26 04:10:42;;;;;;;0.10;0.10;;;;;;;18.13;69.10;101400.84;5066777;28;20063;-75
2022/06/26 04:13:11;;;;;;;0.10;0.10;;;;;;;18.19;68.80;101390.72;5083182;28;20593;-76
2022/06/26 04:15:38;;;;;;;0.43;0.43;;;;;;;18.19;68.73;101393.38;5078607;28;20055;-75
2022/06/26 04:18:05;;;;;;;0.10;0.10;;;;;;;18.22;68.79;101389.72;5081521;28;20433;-75
2022/06/26 04:20:32;;;;;;;0.22;0.22;;;;;;;18.05;69.08;101388.63;5071481;28;20032;-75
2022/06/26 04:23:00;;;;;;;0.20;0.20;;;;;;;18.20;69.13;101399.63;5067254;28;20562;-75
2022/06/26 04:25:28;;;;;;;0.10;0.10;;;;;;;18.23;68.75;101397.69;5076116;28;20375;-75
2022/06/26 04:27:56;;;;;;;0.17;0.17;;;;;;;18.20;69.08;101399.63;5074943;28;20501;-74
2022/06/26 04:30:22;;;;;;;0.98;0.65;;;;;;;18.25;68.73;101401.16;5085908;28;20411;-75
2022/06/26 04:32:49;;;;;;;1.30;0.43;;;;;;;18.26;69.16;101410.97;5079112;28;20034;-75
2022/06/26 04:35:15;;;;;;;0.40;0.40;;;;;;;18.34;69.22;101415.13;5085931;28;20024;-75
2022/06/26 04:37:41;;;;;;;0.95;0.43;;;;;;;18.31;69.26;101409.91;5071745;28;20481;-75
2022/06/26 04:40:11;;;;;;;0.10;0.10;;;;;;;18.43;68.89;101414.75;5061626;28;20060;-75
2022/06/26 04:42:39;;;;;;;0.00;0.00;;;;;;;18.43;68.96;101410.25;5066411;28;20078;-75
2022/06/26 04:45:06;;;;;;;0.15;0.15;;;;;;;18.46;68.69;101409.22;5062479;28;20525;-75
2022/06/26 04:47:33;;;;;;;0.00;0.00;;;;;;;18.46;68.55;101427.16;5063114;28;20024;-75
2022/06/26 04:49:59;;;;;;;0.10;0.10;;;;;;;18.48;68.75;101433.31;5060310;28;20087;-75
2022/06/26 04:52:25;;;;;;;0.10;0.10;;;;;;;18.48;68.82;101428.84;5058723;28;20445;-75
2022/06/26 04:54:51;;;;;;;0.30;0.30;;;;;;;18.42;68.61;101431.78;5054632;28;20029;-75
2022/06/26 04:57:17;;;;;;;0.47;0.47;;;;;;;18.38;68.91;101433.72;5056171;28;20025;-74
2022/06/26 04:59:44;;;;;;;0.10;0.10;;;;;;;18.40;68.77;101445.22;5057479;28;20039;-74
2022/06/26 05:02:11;;;;;;;0.15;0.15;;;;;;;18.40;69.10;101449.75;5053049;28;20502;-75
2022/06/26 05:04:38;;;;;;;0.00;0.00;;;;;;;18.29;69.23;101460.94;5063298;28;20031;-75
2022/06/26 05:07:05;;;;;;;0.10;0.10;;;;;;;18.22;69.59;101463.00;5056671;28;20029;-75
2022/06/26 05:09:31;;;;;;;2.35;0.85;;;;;;;18.29;69.30;101462.75;5059254;28;20024;-75
2022/06/26 05:11:58;;;;;;;0.77;0.77;;;;;;;18.37;68.96;101463.31;5066460;28;20123;-75
2022/06/26 05:14:24;;;;;;;0.17;0.17;;;;;;;18.35;69.26;101462.50;5070870;28;20024;-75
2022/06/26 05:16:51;;;;;;;0.10;0.10;;;;;;;18.38;69.17;101460.56;5068065;28;20154;-76
2022/06/26 05:19:18;;;;;;;0.10;0.10;;;;;;;18.37;69.13;101464.16;5062793;28;20474;-75
2022/06/26 05:21:44;;;;;;;0.20;0.20;;;;;;;18.53;68.88;101464.38;5061348;28;20028;-75
2022/06/26 05:24:10;;;;;;;0.10;0.10;;;;;;;18.55;69.13;101469.66;5071179;28;20406;-74
2022/06/26 05:26:39;;;;;;;0.75;0.75;;;;;;;18.56;68.82;101463.38;5059364;28;20055;-74
2022/06/26 05:29:05;;;;;;;2.17;1.27;;;;;;;18.63;68.65;101458.59;5071070;28;20402;-75
2022/06/26 05:31:31;;;;;;;0.55;0.55;;;;;;;18.70;68.57;101449.34;5069649;28;20174;-75
2022/06/26 05:33:57;;;;;;;0.50;0.50;;;;;;;18.77;68.35;101456.19;5056297;28;20514;-75
2022/06/26 05:36:23;;;;;;;0.10;0.10;;;;;;;18.82;68.47;101464.91;5058399;28;20040;-75
2022/06/26 05:38:49;;;;;;;0.20;0.20;;;;;;;18.86;68.18;101469.19;5066848;28;20087;-75
2022/06/26 05:41:16;;;;;;;0.10;0.10;;;;;;;18.93;68.10;101472.50;5063008;28;20032;-76
2022/06/26 05:43:42;;;;;;;0.10;0.10;;;;;;;19.10;68.10;101477.09;5063884;28;20025;-75
2022/06/26 05:46:08;;;;;;;0.20;0.20;;;;;;;19.22;68.29;101483.72;5071239;28;20028;-75
2022/06/26 05:48:34;;;;;;;0.10;0.10;;;;;;;19.38;67.71;101483.91;5059500;28;20036;-75
2022/06/26 05:51:00;;;;;;;1.30;1.23;;;;;;;19.51;67.32;101486.88;5054098;28;20192;-75
2022/06/26 05:53:26;;;;;;;0.00;0.00;;;;;;;19.55;66.76;101485.75;5052410;28;20035;-76
2022/06/26 05:55:53;;;;;;;0.00;0.00;;;;;;;19.50;66.59;101486.00;5058096;28;20024;-75
2022/06/26 05:58:19;;;;;;;0.00;0.00;;;;;;;19.52;65.54;101494.00;5061672;28;20083;-75
2022/06/26 06:00:45;;;;;;;0.10;0.10;;;;;;;19.62;65.68;101497.13;5056082;28;20115;-74
2022/06/26 06:03:11;;;;;;;1.85;1.20;;;;;;;19.63;65.30;101496.19;5054419;28;20166;-75
2022/06/26 06:05:37;;;;;;;0.10;0.10;;;;;;;19.61;65.22;101496.22;5061605;28;20032;-75
2022/06/26 06:08:04;;;;;;;0.13;0.13;;;;;;;19.66;65.21;101501.38;5060177;28;20021;-75
2022/06/26 06:10:30;;;;;;;0.08;0.08;;;;;;;19.64;65.14;101506.84;5061791;28;20110;-75
2022/06/26 06:12:56;;;;;;;0.03;0.03;;;;;;;19.62;64.38;101506.03;5064097;28;20044;-75
2022/06/26 06:15:26;;;;;;;0.93;0.93;;;;;;;19.75;64.43;101508.13;5059223;28;20364;-75
2022/06/26 06:17:52;;;;;;;0.45;0.45;;;;;;;19.81;64.89;101523.97;5058178;28;20025;-75
2022/06/26 06:20:20;;;;;;;0.22;0.22;;;;;;;19.90;64.68;101518.22;5058776;28;20032;-75
2022/06/26 06:25:23;;;;;;;0.20;0.20;;;;;;;20.06;64.71;101528.19;5094964;27;20409;-76
2022/06/26 06:27:50;;;;;;;0.45;0.45;;;;;;;20.09;64.65;101525.34;5097249;28;20027;-76
2022/06/26 06:30:16;;;;;;;0.25;0.25;;;;;;;20.14;64.49;101528.72;5103340;28;20126;-75
2022/06/26 06:32:45;;;;;;;0.20;0.20;;;;;;;20.12;63.78;101531.44;5073796;28;20040;-76
2022/06/26 06:35:13;;;;;;;0.08;0.08;;;;;;;20.10;63.34;101541.44;5073249;28;20112;-76
2022/06/26 06:37:41;;;;;;;0.82;0.80;;;;;;;20.17;64.00;101542.00;5077048;28;20036;-76
2022/06/26 06:40:08;;;;;;;0.10;0.10;;;;;;;20.08;63.40;101548.69;5070134;28;20051;-76
2022/06/26 06:42:35;;;;;;;0.10;0.10;;;;;;;20.10;63.21;101564.75;5068681;28;20514;-76
2022/06/26 06:45:01;;;;;;;0.20;0.20;;;;;;;20.03;63.79;101566.88;5084162;28;20517;-76
2022/06/26 06:47:27;;;;;;;0.00;0.00;;;;;;;20.02;63.09;101574.06;5073063;28;20033;-76
2022/06/26 06:49:54;;;;;;;0.10;0.10;;;;;;;19.97;63.23;101578.78;5068068;28;20043;-76
2022/06/26 06:52:20;;;;;;;0.20;0.20;;;;;;;19.93;63.72;101582.59;5074265;28;20114;-76
2022/06/26 06:54:46;;;;;;;0.25;0.25;;;;;;;19.98;63.42;101580.53;5067334;28;20390;-76
2022/06/26 06:57:12;;;;;;;0.10;0.10;;;;;;;20.06;63.57;101593.63;5073459;28;20067;-76
2022/06/26 06:59:38;;;;;;;0.05;0.05;;;;;;;20.17;63.55;101602.03;5072587;28;20055;-76
2022/06/26 07:02:04;;;;;;;0.00;0.00;;;;;;;20.26;63.05;101587.31;5073153;28;20032;-75
2022/06/26 07:04:30;;;;;;;0.00;0.00;;;;;;;20.41;63.10;101585.66;5071854;28;20031;-75
2022/06/26 07:06:57;;;;;;;0.10;0.10;;;;;;;20.51;62.89;101591.44;5076048;28;20060;-76
2022/06/26 07:09:23;;;;;;;0.30;0.30;;;;;;;20.55;62.24;101584.09;5076033;28;20020;-75
2022/06/26 07:11:50;;;;;;;0.20;0.20;;;;;;;20.63;62.49;101590.81;5074623;28;20037;-75
2022/06/26 07:14:16;;;;;;;0.20;0.20;;;;;;;20.71;61.58;101601.25;5056906;28;20465;-76
2022/06/26 07:16:42;;;;;;;0.20;0.20;;;;;;;20.69;60.94;101587.81;5065408;28;20036;-75
2022/06/26 07:19:09;;;;;;;0.10;0.10;;;;;;;20.73;60.06;101587.72;5080768;28;20066;-76
2022/06/26 07:21:35;;;;;;;0.15;0.15;;;;;;;20.85;60.88;101587.94;5080578;28;20534;-76
2022/06/26 07:24:01;;;;;;;0.10;0.10;;;;;;;20.76;60.07;101592.94;5068441;28;20032;-75
2022/06/26 07:26:27;;;;;;;0.03;0.03;;;;;;;20.95;60.51;101592.88;5073228;28;20143;-76
2022/06/26 07:28:54;;;;;;;0.00;0.00;;;;;;;20.98;60.03;101593.56;5064849;28;20063;-75
2022/06/26 07:31:20;;;;;;;0.45;0.30;;;;;;;20.97;59.82;101599.91;5072258;28;20048;-76
2022/06/26 07:34:18;;;;;;;0.10;0.10;;;;;;;20.95;59.17;101599.13;5068268;28;20016;-76
2022/06/26 07:36:32;;;;;;;0.10;0.10;;;;;;;21.00;59.42;101601.59;5051194;28;20064;-75
2022/06/26 07:38:59;;;;;;;0.08;0.08;;;;;;;20.96;59.04;101605.38;5060035;28;20036;-76
2022/06/26 07:41:25;;;;;;;0.10;0.10;;;;;;;20.89;60.00;101610.22;5047762;28;20033;-75
2022/06/26 07:43:51;;;;;;;0.10;0.10;;;;;;;20.85;58.42;101605.94;5053403;28;20399;-75
2022/06/26 07:46:17;;;;;;;0.10;0.10;;;;;;;20.78;58.41;101605.38;5045429;28;20045;-75
2022/06/26 07:48:43;;;;;;;0.05;0.05;;;;;;;20.78;58.35;101607.19;5058323;28;20032;-75
2022/06/26 07:51:09;;;;;;;0.10;0.10;;;;;;;20.80;58.94;101610.69;5057894;28;20727;-75
2022/06/26 07:53:36;;;;;;;0.10;0.10;;;;;;;20.75;59.04;101615.41;5066618;28;20032;-75
2022/06/26 07:56:04;;;;;;;0.95;0.52;;;;;;;20.79;58.70;101620.56;5055316;28;20586;-75
2022/06/26 07:58:30;;;;;;;0.10;0.10;;;;;;;20.84;58.97;101623.03;5058880;28;20025;-74
2022/06/26 08:00:56;;;;;;;0.10;0.10;;;;;;;20.71;57.39;101627.28;5051489;28;20033;-75
2022/06/26 08:03:23;;;;;;;0.10;0.10;;;;;;;20.81;58.53;101623.19;5047255;28;20025;-75
2022/06/26 08:05:50;;;;;;;0.10;0.10;;;;;;;20.84;58.10;101623.91;5045582;28;20033;-75
2022/06/26 08:08:16;;;;;;;0.10;0.10;;;;;;;20.93;58.69;101627.94;5043159;28;20115;-75
2022/06/26 08:10:42;;;;;;;0.10;0.10;;;;;;;21.01;58.79;101631.13;5056433;28;20032;-75
2022/06/26 08:13:09;;;;;;;0.15;0.15;;;;;;;21.08;59.09;101641.59;5048107;28;20056;-76
2022/06/26 08:15:35;;;;;;;0.10;0.10;;;;;;;21.07;58.29;101640.72;5048179;28;20060;-76
2022/06/26 08:18:02;;;;;;;0.10;0.10;;;;;;;21.08;57.69;101628.13;5041045;28;20017;-75
2022/06/26 08:20:29;;;;;;;0.00;0.00;;;;;;;21.07;56.87;101629.06;5053044;28;20032;-75
2022/06/26 08:22:55;;;;;;;0.10;0.10;;;;;;;21.12;56.73;101618.91;5040394;28;20075;-75
2022/06/26 08:25:21;;;;;;;0.10;0.10;;;;;;;21.24;57.93;101615.56;5046568;28;20049;-76
2022/06/26 08:27:47;;;;;;;0.20;0.20;;;;;;;21.31;57.82;101614.31;5047030;28;20068;-77
2022/06/26 08:30:13;;;;;;;0.10;0.10;;;;;;;21.41;56.53;101617.38;5045827;28;20115;-76
2022/06/26 08:32:40;;;;;;;0.17;0.17;;;;;;;21.54;57.20;101617.59;5060226;28;20137;-76
2022/06/26 08:35:07;;;;;;;0.05;0.05;;;;;;;21.71;56.91;101618.53;5065920;28;20017;-76
2022/06/26 08:37:33;;;;;;;0.00;0.00;;;;;;;21.89;56.80;101625.59;5071734;28;20032;-76
2022/06/26 08:40:00;;;;;;;0.10;0.10;;;;;;;22.04;56.25;101636.50;5072053;28;20025;-76
2022/06/26 08:42:27;;;;;;;0.03;0.03;;;;;;;22.10;54.05;101638.88;5073801;28;20036;-77
2022/06/26 08:44:56;;;;;;;0.10;0.10;;;;;;;22.23;53.40;101630.94;5059674;28;20392;-75
2022/06/26 08:47:25;;;;;;;0.05;0.05;;;;;;;22.21;52.57;101641.81;5051440;28;20201;-77
2022/06/26 08:49:52;;;;;;;0.10;0.10;;;;;;;22.21;52.05;101639.13;5053552;28;20094;-77
2022/06/26 08:52:20;;;;;;;0.10;0.10;;;;;;;22.23;54.47;101637.22;5053342;28;20032;-76
2022/06/26 08:54:48;;;;;;;0.10;0.10;;;;;;;22.16;52.14;101640.34;5053434;28;20532;-77
2022/06/26 08:57:15;;;;;;;0.10;0.10;;;;;;;22.23;53.52;101637.22;5053972;28;20036;-77
2022/06/26 08:59:42;;;;;;;0.10;0.10;;;;;;;22.33;53.44;101634.88;5049845;28;20025;-74
2022/06/26 09:02:08;;;;;;;0.10;0.10;;;;;;;22.47;54.07;101634.09;5049322;28;20029;-74
2022/06/26 09:04:36;;;;;;;0.10;0.10;;;;;;;22.55;52.81;101626.41;5052529;28;20033;-74
2022/06/26 09:07:05;;;;;;;0.05;0.05;;;;;;;22.61;53.29;101630.59;5071853;28;20032;-74
2022/06/26 09:09:31;;;;;;;0.20;0.20;;;;;;;22.60;53.39;101624.34;5071520;28;20028;-74
2022/06/26 09:12:00;;;;;;;0.10;0.10;;;;;;;22.66;50.85;101622.25;5070563;28;20020;-74
2022/06/26 09:14:28;;;;;;;0.10;0.10;;;;;;;22.78;53.28;101626.91;5066881;28;20382;-75
2022/06/26 09:16:56;;;;;;;0.10;0.10;;;;;;;22.84;52.47;101640.06;5049738;28;20021;-75
2022/06/26 09:19:29;;;;;;;0.10;0.10;;;;;;;22.94;52.87;101632.25;5045998;28;20398;-76
2022/06/26 09:22:07;;;;;;;0.10;0.10;;;;;;;23.09;52.36;101633.16;5048271;28;20292;-76
2022/06/26 09:24:36;;;;;;;0.05;0.05;;;;;;;23.15;52.77;101638.19;5043109;28;20070;-77
2022/06/26 09:29:47;;;;;;;0.00;0.00;;;;;;;23.42;52.25;101648.34;5046301;28;20416;-76
2022/06/26 09:32:14;;;;;;;0.00;0.00;;;;;;;23.57;52.61;101647.38;5032657;28;20049;-76
2022/06/26 09:34:50;;;;;;;0.00;0.00;;;;;;;23.72;50.89;101656.34;5020442;28;20084;-76
2022/06/26 09:37:18;;;;;;;0.10;0.10;;;;;;;23.74;50.97;101642.75;5027650;28;20025;-76
2022/06/26 09:39:44;;;;;;;0.25;0.25;;;;;;;23.75;51.92;101644.47;5018977;28;20096;-77
2022/06/26 09:44:59;;;;;;;0.10;0.10;;;;;;;23.93;51.59;101653.31;5090387;27;20145;-75
2022/06/26 09:47:29;;;;;;;0.10;0.10;;;;;;;24.09;50.79;101661.31;5082784;28;20043;-75
2022/06/26 09:49:57;;;;;;;0.10;0.10;;;;;;;24.21;49.95;101660.53;5079144;28;20378;-75
2022/06/26 09:52:26;;;;;;;0.45;0.45;;;;;;;24.33;50.18;101655.28;5066501;28;20025;-75
2022/06/26 09:54:54;;;;;;;0.28;0.28;;;;;;;24.43;49.92;101660.97;5061908;28;20086;-75
2022/06/26 09:57:20;;;;;;;0.10;0.10;;;;;;;24.53;50.07;101654.81;5073320;28;20040;-76
2022/06/26 09:59:47;;;;;;;0.10;0.10;;;;;;;24.62;49.16;101653.31;5069788;28;20082;-77
2022/06/26 10:07:51;;;;;;;0.10;0.10;;;;;;;24.86;48.58;101649.97;5054726;28;20044;-75
2022/06/26 10:10:21;;;;;;;0.10;0.10;;;;;;;25.04;49.01;101656.00;5063499;28;20040;-74
2022/06/26 10:12:55;;;;;;;0.30;0.30;;;;;;;25.10;47.43;101641.16;5055504;28;20029;-75
2022/06/26 10:15:27;;;;;;;0.10;0.10;;;;;;;25.14;47.84;101651.66;5071067;28;20177;-75
2022/06/26 10:18:20;;;;;;;0.10;0.10;;;;;;;25.24;47.28;101646.47;5068012;28;20033;-75
2022/06/26 10:20:47;;;;;;;0.10;0.10;;;;;;;25.19;46.20;101643.22;5058968;28;21621;-75
2022/06/26 10:23:32;;;;;;;0.10;0.10;;;;;;;25.32;46.02;101651.34;5064444;28;20032;-75
2022/06/26 10:25:58;;;;;;;0.17;0.17;;;;;;;25.35;46.68;101651.16;5070462;28;20067;-76
2022/06/26 10:28:24;;;;;;;0.17;0.17;;;;;;;25.31;44.43;101658.63;5065397;28;20036;-76
2022/06/26 10:30:50;;;;;;;0.10;0.10;;;;;;;25.33;45.17;101658.53;5069061;28;20020;-75
2022/06/26 10:33:18;;;;;;;0.05;0.05;;;;;;;25.31;46.24;101657.75;5067873;28;20478;-75
2022/06/26 10:35:49;;;;;;;0.10;0.10;;;;;;;25.27;46.23;101661.66;5066106;28;20039;-75
2022/06/26 10:44:17;;;;;;;0.10;0.10;;;;;;;25.29;43.68;101666.00;5120660;27;20123;-75
2022/06/26 10:46:56;;;;;;;0.20;0.20;;;;;;;25.34;44.07;101668.41;5116831;27;20042;-75
2022/06/26 10:49:22;;;;;;;0.10;0.10;;;;;;;25.39;44.27;101670.84;5123143;27;20392;-75
2022/06/26 10:51:49;;;;;;;0.20;0.20;;;;;;;25.38;43.19;101669.94;5124706;27;20027;-75
2022/06/26 10:54:25;;;;;;;0.20;0.20;;;;;;;25.54;45.38;101658.03;5126161;27;20042;-75
2022/06/26 10:59:40;;;;;;;0.00;0.00;;;;;;;25.65;44.29;101666.28;5099587;27;20408;-75
2022/06/26 11:02:11;;;;;;;0.10;0.10;;;;;;;25.83;45.44;101662.25;5083504;28;20050;-75
2022/06/26 11:04:47;;;;;;;0.10;0.10;;;;;;;26.04;44.44;101661.66;5081240;28;20029;-75
2022/06/26 11:07:14;;;;;;;0.20;0.20;;;;;;;26.11;43.12;101660.25;5078629;28;20024;-75
2022/06/26 11:09:41;;;;;;;0.20;0.20;;;;;;;26.15;43.81;101661.75;5083252;28;20028;-74
2022/06/26 11:12:08;;;;;;;0.10;0.10;;;;;;;26.23;42.01;101654.91;5078122;28;20074;-74
2022/06/26 11:14:34;;;;;;;0.10;0.10;;;;;;;26.26;43.22;101660.13;5076550;28;20036;-75
2022/06/26 11:17:00;;;;;;;0.40;0.40;;;;;;;26.12;40.96;101659.28;5075659;28;20089;-74
2022/06/26 11:19:31;;;;;;;0.10;0.10;;;;;;;26.15;43.13;101660.91;5077935;28;20066;-75
2022/06/26 11:22:07;;;;;;;0.13;0.13;;;;;;;26.13;43.23;101661.03;5081123;28;20036;-75
2022/06/26 11:24:35;;;;;;;0.10;0.10;;;;;;;26.07;43.09;101666.03;5107987;22;20062;-79
2022/06/26 11:27:02;;;;;;;0.10;0.10;;;;;;;26.00;44.24;101652.88;5061601;28;20039;-78
2022/06/26 11:29:28;;;;;;;0.00;0.00;;;;;;;25.87;42.51;101649.31;5061628;28;20502;-78
2022/06/26 11:31:56;;;;;;;0.15;0.15;;;;;;;25.96;42.57;101647.78;5076145;28;20055;-78
2022/06/26 11:34:22;;;;;;;0.03;0.03;;;;;;;26.06;43.54;101654.31;5077400;28;21897;-79
2022/06/26 11:36:50;;;;;;;0.13;0.13;;;;;;;26.04;41.05;101650.78;5082972;28;20171;-79
2022/06/26 11:39:17;;;;;;;2.72;1.65;;;;;;;26.10;42.58;101653.09;5077613;28;20028;-79
2022/06/26 11:41:44;;;;;;;0.43;0.43;;;;;;;26.18;43.35;101651.66;5079355;28;20043;-79
2022/06/26 11:44:10;;;;;;;2.85;0.85;;;;;;;26.11;42.32;101654.84;5080655;28;20037;-80
2022/06/26 11:46:36;;;;;;;0.10;0.10;;;;;;;26.03;42.33;101642.78;5088836;28;20032;-80
2022/06/26 11:49:03;;;;;;;1.80;0.52;;;;;;;26.05;42.58;101646.25;5067812;28;20025;-77
2022/06/26 11:51:32;;;;;;;0.10;0.10;;;;;;;26.11;42.04;101645.84;5072663;28;20031;-78
2022/06/26 11:53:59;;;;;;;0.10;0.10;;;;;;;26.13;42.29;101649.28;5084034;28;20032;-79